createdAt,value
2022-12-03T00:01:51.237Z,-1.60
2022-12-03T00:04:18.166Z,-1.70
2022-12-03T00:06:45.433Z,-1.70
2022-12-03T00:09:12.405Z,-1.60
2022-12-03T00:11:39.618Z,-1.60
2022-12-03T00:14:06.584Z,-1.60
2022-12-03T00:16:33.937Z,-1.50
2022-12-03T00:19:00.883Z,-1.50
2022-12-03T00:21:28.103Z,-1.50
2022-12-03T00:23:55.037Z,-1.60
2022-12-03T00:26:22.615Z,-1.60
2022-12-03T00:28:49.530Z,-1.60
2022-12-03T00:31:17.172Z,-1.60
2022-12-03T00:33:44.193Z,-1.60
2022-12-03T00:36:11.470Z,-1.60
2022-12-03T00:38:38.376Z,-1.60
2022-12-03T00:41:05.716Z,-1.60
2022-12-03T00:43:32.749Z,-1.60
2022-12-03T00:46:00.242Z,-1.60
2022-12-03T00:48:27.302Z,-1.60
2022-12-03T00:50:54.490Z,-1.60
2022-12-03T00:53:21.582Z,-1.60
2022-12-03T00:55:50.691Z,-1.60
2022-12-03T00:58:18.217Z,-1.60
2022-12-03T01:00:45.537Z,-1.60
2022-12-03T01:03:12.509Z,-1.50
2022-12-03T01:05:39.771Z,-1.50
2022-12-03T01:08:06.745Z,-1.50
2022-12-03T01:10:34.109Z,-1.50
2022-12-03T01:13:01.003Z,-1.50
2022-12-03T01:15:28.205Z,-1.60
2022-12-03T01:17:55.203Z,-1.50
2022-12-03T01:20:22.679Z,-1.50
2022-12-03T01:22:49.597Z,-1.50
2022-12-03T01:25:16.850Z,-1.50
2022-12-03T01:27:43.842Z,-1.50
2022-12-03T01:30:12.632Z,-1.50
2022-12-03T01:32:39.628Z,-1.50
2022-12-03T01:35:07.577Z,-1.50
2022-12-03T01:37:34.646Z,-1.50
2022-12-03T01:40:01.957Z,-1.50
2022-12-03T01:42:35.562Z,-1.50
2022-12-03T01:45:03.464Z,-1.50
2022-12-03T01:47:33.378Z,-1.50
2022-12-03T01:50:05.765Z,-1.60
2022-12-03T01:52:38.568Z,-1.40
2022-12-03T01:55:11.306Z,-1.50
2022-12-03T01:57:40.595Z,-1.50
2022-12-03T02:00:19.256Z,-1.50
2022-12-03T02:02:48.534Z,-1.50
2022-12-03T02:05:22.460Z,-1.40
2022-12-03T02:07:49.930Z,-1.50
2022-12-03T02:10:20.109Z,-1.50
2022-12-03T02:13:13.303Z,-1.50
2022-12-03T02:15:41.091Z,-1.50
2022-12-03T02:18:09.159Z,-1.40
2022-12-03T02:21:03.194Z,-1.40
2022-12-03T02:23:43.593Z,-1.40
2022-12-03T02:26:11.016Z,-1.40
2022-12-03T02:28:38.550Z,-1.40
2022-12-03T02:31:06.250Z,-1.40
2022-12-03T02:33:33.585Z,-1.40
2022-12-03T02:36:03.813Z,-1.40
2022-12-03T02:38:32.733Z,-1.30
2022-12-03T02:41:04.552Z,-1.30
2022-12-03T02:43:31.863Z,-1.30
2022-12-03T02:46:01.689Z,-1.30
2022-12-03T02:48:40.377Z,-1.30
2022-12-03T02:51:10.209Z,-1.30
2022-12-03T02:53:49.057Z,-1.30
2022-12-03T02:56:20.635Z,-1.20
2022-12-03T02:58:50.244Z,-1.30
2022-12-03T03:01:18.131Z,-1.30
2022-12-03T03:03:47.705Z,-1.30
2022-12-03T03:06:15.649Z,-1.30
2022-12-03T03:08:43.379Z,-1.30
2022-12-03T03:11:11.300Z,-1.30
2022-12-03T03:13:39.313Z,-1.30
2022-12-03T03:16:07.558Z,-1.30
2022-12-03T03:18:35.109Z,-1.20
2022-12-03T03:21:03.189Z,-1.20
2022-12-03T03:23:30.313Z,-1.20
2022-12-03T03:26:02.833Z,-1.20
2022-12-03T03:28:31.436Z,-1.20
2022-12-03T03:31:02.248Z,-1.10
2022-12-03T03:33:30.089Z,-1.20
2022-12-03T03:35:57.633Z,-1.20
2022-12-03T03:38:24.948Z,-1.20
2022-12-03T03:40:52.883Z,-1.10
2022-12-03T03:43:23.976Z,-1.20
2022-12-03T03:45:52.205Z,-1.20
2022-12-03T03:48:20.167Z,-1.20
2022-12-03T03:50:48.118Z,-1.20
2022-12-03T03:53:16.543Z,-1.20
2022-12-03T03:55:43.849Z,-1.20
2022-12-03T03:58:11.296Z,-1.20
2022-12-03T04:00:38.776Z,-1.20
2022-12-03T04:03:06.847Z,-1.10
2022-12-03T04:05:34.041Z,-1.30
2022-12-03T04:08:01.581Z,-1.20
2022-12-03T04:10:47.398Z,-1.30
2022-12-03T04:13:14.761Z,-1.30
2022-12-03T04:15:41.693Z,-1.20
2022-12-03T04:18:27.562Z,-1.20
2022-12-03T04:21:17.256Z,-1.20
2022-12-03T04:23:44.489Z,-1.20
2022-12-03T04:26:30.378Z,-1.20
2022-12-03T04:28:57.945Z,-1.20
2022-12-03T04:31:43.447Z,-1.20
2022-12-03T04:34:44.881Z,-1.10
2022-12-03T04:37:12.188Z,-1.20
2022-12-03T04:39:39.729Z,-1.20
2022-12-03T04:42:07.078Z,-1.20
2022-12-03T04:44:36.431Z,-1.10
2022-12-03T04:47:06.176Z,-1.10
2022-12-03T04:49:34.534Z,-1.20
2022-12-03T04:52:01.508Z,-1.20
2022-12-03T04:54:29.014Z,-1.20
2022-12-03T04:56:56.298Z,-1.10
2022-12-03T04:59:23.674Z,-1.10
2022-12-03T05:01:50.698Z,-1.10
2022-12-03T05:04:18.150Z,-1.10
2022-12-03T05:06:45.146Z,-1.10
2022-12-03T05:09:12.837Z,-1.10
2022-12-03T05:11:40.650Z,-1.20
2022-12-03T05:14:10.104Z,-1.20
2022-12-03T05:16:37.875Z,-1.10
2022-12-03T05:19:06.921Z,-1.10
2022-12-03T05:21:33.983Z,-1.10
2022-12-03T05:24:01.352Z,-1.10
2022-12-03T05:26:28.352Z,-1.10
2022-12-03T05:28:55.860Z,-1.20
2022-12-03T05:31:23.261Z,-1.20
2022-12-03T05:33:50.581Z,-1.10
2022-12-03T05:36:17.682Z,-1.10
2022-12-03T05:38:44.980Z,-1.00
2022-12-03T05:41:30.457Z,-1.00
2022-12-03T05:43:57.736Z,-1.00
2022-12-03T05:46:24.711Z,-1.00
2022-12-03T05:48:51.938Z,-1.00
2022-12-03T05:51:18.881Z,-1.00
2022-12-03T05:53:46.329Z,-1.00
2022-12-03T05:56:13.365Z,-1.00
2022-12-03T05:58:40.544Z,-1.00
2022-12-03T06:01:07.479Z,-1.00
2022-12-03T06:03:34.729Z,-0.90
2022-12-03T06:06:02.536Z,-1.00
2022-12-03T06:08:29.763Z,-0.90
2022-12-03T06:10:56.719Z,-0.90
2022-12-03T06:13:23.968Z,-0.90
2022-12-03T06:15:50.908Z,-0.90
2022-12-03T06:18:18.260Z,-0.80
2022-12-03T06:20:45.196Z,-0.90
2022-12-03T06:23:12.370Z,-0.90
2022-12-03T06:25:39.397Z,-0.90
2022-12-03T06:28:07.400Z,-0.80
2022-12-03T06:30:35.833Z,-0.80
2022-12-03T06:33:03.202Z,-0.80
2022-12-03T06:35:30.231Z,-0.80
2022-12-03T06:37:57.486Z,-0.80
2022-12-03T06:40:25.173Z,-0.80
2022-12-03T06:42:52.670Z,-0.80
2022-12-03T06:45:19.750Z,-0.80
2022-12-03T06:47:46.969Z,-0.70
2022-12-03T06:50:14.367Z,-0.70
2022-12-03T06:52:41.605Z,-0.70
2022-12-03T06:55:09.517Z,-0.70
2022-12-03T06:57:36.718Z,-0.70
2022-12-03T07:00:06.239Z,-0.70
2022-12-03T07:02:33.580Z,-0.80
2022-12-03T07:05:00.703Z,-0.80
2022-12-03T07:07:28.017Z,-0.80
2022-12-03T07:09:55.024Z,-0.80
2022-12-03T07:12:22.544Z,-0.70
2022-12-03T07:14:49.523Z,-0.70
2022-12-03T07:17:16.951Z,-0.70
2022-12-03T07:19:43.927Z,-0.60
2022-12-03T07:22:11.245Z,-0.60
2022-12-03T07:24:38.166Z,-0.60
2022-12-03T07:27:05.377Z,-0.60
2022-12-03T07:29:32.406Z,-0.60
2022-12-03T07:31:59.846Z,-0.60
2022-12-03T07:34:26.849Z,-0.60
2022-12-03T07:36:54.057Z,-0.60
2022-12-03T07:39:20.968Z,-0.60
2022-12-03T07:41:48.181Z,-0.60
2022-12-03T07:44:15.155Z,-0.60
2022-12-03T07:46:43.254Z,-0.60
2022-12-03T07:49:12.122Z,-0.60
2022-12-03T07:51:39.570Z,-0.60
2022-12-03T07:54:06.542Z,-0.60
2022-12-03T07:56:34.113Z,-0.60
2022-12-03T07:59:01.048Z,-0.60
2022-12-03T08:01:28.280Z,-0.60
2022-12-03T08:03:55.476Z,-0.60
2022-12-03T08:06:22.677Z,-0.60
2022-12-03T08:08:49.672Z,-0.60
2022-12-03T08:11:16.895Z,-0.60
2022-12-03T08:13:43.900Z,-0.60
2022-12-03T08:16:21.875Z,-0.50
2022-12-03T08:18:50.169Z,-0.50
2022-12-03T08:21:21.055Z,-0.40
2022-12-03T08:23:48.101Z,-0.40
2022-12-03T08:26:25.919Z,-0.30
2022-12-03T08:28:53.528Z,-0.30
2022-12-03T08:31:32.502Z,-0.30
2022-12-03T08:34:18.751Z,-0.30
2022-12-03T08:36:47.407Z,-0.40
2022-12-03T08:39:33.762Z,-0.30
2022-12-03T08:42:34.846Z,-0.30
2022-12-03T08:45:30.420Z,-0.30
2022-12-03T08:47:59.588Z,-0.30
2022-12-03T08:50:29.644Z,-0.20
2022-12-03T08:53:27.558Z,-0.20
2022-12-03T08:55:57.805Z,-0.10
2022-12-03T08:58:33.283Z,-0.10
2022-12-03T09:01:12.102Z,-0.10
2022-12-03T09:03:49.311Z,0.00
2022-12-03T09:06:16.348Z,0.00
2022-12-03T09:08:43.687Z,0.00
2022-12-03T09:11:10.719Z,0.00
2022-12-03T09:13:37.985Z,0.10
2022-12-03T09:16:05.405Z,0.10
2022-12-03T09:18:32.897Z,0.10
2022-12-03T09:20:59.889Z,0.20
2022-12-03T09:23:27.139Z,0.30
2022-12-03T09:25:54.206Z,0.40
2022-12-03T09:28:21.447Z,0.40
2022-12-03T09:30:48.411Z,0.40
2022-12-03T09:33:15.594Z,0.50
2022-12-03T09:35:42.583Z,0.50
2022-12-03T09:38:09.805Z,0.50
2022-12-03T09:40:36.768Z,0.60
2022-12-03T09:43:04.249Z,0.60
2022-12-03T09:45:31.248Z,0.40
2022-12-03T09:48:00.230Z,0.40
2022-12-03T09:50:28.798Z,0.30
2022-12-03T09:52:59.361Z,0.40
2022-12-03T09:55:28.220Z,0.30
2022-12-03T09:57:56.816Z,0.40
2022-12-03T10:00:29.639Z,0.50
2022-12-03T10:02:59.460Z,0.60
2022-12-03T10:05:26.458Z,0.70
2022-12-03T10:07:58.195Z,0.70
2022-12-03T10:10:25.321Z,0.80
2022-12-03T10:12:53.322Z,1.00
2022-12-03T10:15:23.256Z,1.20
2022-12-03T10:17:52.830Z,1.40
2022-12-03T10:20:22.764Z,1.70
2022-12-03T10:22:50.088Z,1.90
2022-12-03T10:25:19.994Z,2.00
2022-12-03T10:28:02.285Z,1.80
2022-12-03T10:30:29.997Z,1.80
2022-12-03T10:33:02.593Z,1.70
2022-12-03T10:35:41.248Z,1.60
2022-12-03T10:38:22.849Z,1.50
2022-12-03T10:40:50.340Z,1.40
2022-12-03T10:43:23.813Z,1.20
2022-12-03T10:46:12.528Z,1.10
2022-12-03T10:48:39.805Z,1.00
2022-12-03T10:51:16.990Z,1.00
2022-12-03T10:53:44.483Z,1.00
2022-12-03T10:56:17.821Z,0.90
2022-12-03T10:58:45.553Z,1.00
2022-12-03T11:01:22.232Z,1.00
2022-12-03T11:03:50.742Z,1.00
2022-12-03T11:06:20.534Z,1.00
2022-12-03T11:08:58.394Z,1.00
2022-12-03T11:11:29.498Z,1.10
2022-12-03T11:13:59.327Z,1.10
2022-12-03T11:16:41.630Z,1.20
2022-12-03T11:19:42.865Z,1.20
2022-12-03T11:22:10.155Z,1.30
2022-12-03T11:24:41.533Z,1.30
2022-12-03T11:27:11.772Z,1.30
2022-12-03T11:29:59.285Z,1.30
2022-12-03T11:32:38.416Z,1.20
2022-12-03T11:35:12.597Z,1.20
2022-12-03T11:37:39.934Z,1.20
2022-12-03T11:40:15.980Z,1.20
2022-12-03T11:42:43.624Z,1.30
2022-12-03T11:45:10.801Z,1.20
2022-12-03T11:47:44.811Z,1.30
2022-12-03T11:50:18.082Z,1.20
2022-12-03T11:52:46.714Z,1.30
2022-12-03T11:55:28.261Z,1.30
2022-12-03T11:58:12.395Z,1.20
2022-12-03T12:00:39.602Z,1.30
2022-12-03T12:03:27.936Z,1.30
2022-12-03T12:06:10.664Z,1.30
2022-12-03T12:08:49.835Z,1.30
2022-12-03T12:11:27.902Z,1.30
2022-12-03T12:14:00.715Z,1.40
2022-12-03T12:16:55.208Z,1.40
2022-12-03T12:19:38.599Z,1.50
2022-12-03T12:22:14.972Z,1.40
2022-12-03T12:24:47.898Z,1.40
2022-12-03T12:27:37.449Z,1.40
2022-12-03T12:30:17.381Z,1.50
2022-12-03T12:32:46.960Z,1.40
2022-12-03T12:35:16.420Z,1.40
2022-12-03T12:38:02.264Z,1.50
2022-12-03T12:40:32.262Z,1.50
2022-12-03T12:43:13.225Z,1.50
2022-12-03T12:45:43.718Z,1.60
2022-12-03T12:48:25.781Z,1.50
2022-12-03T12:50:58.575Z,1.50
2022-12-03T12:53:34.171Z,1.50
2022-12-03T12:56:26.725Z,1.60
2022-12-03T12:58:54.812Z,1.60
2022-12-03T13:01:32.249Z,1.60
2022-12-03T13:03:59.751Z,1.70
2022-12-03T13:06:28.857Z,1.70
2022-12-03T13:08:58.506Z,1.70
2022-12-03T13:11:25.421Z,1.70
2022-12-03T13:13:52.713Z,1.70
2022-12-03T13:16:28.015Z,1.60
2022-12-03T13:18:57.622Z,1.60
2022-12-03T13:21:39.734Z,1.70
2022-12-03T13:24:24.869Z,1.60
2022-12-03T13:26:52.429Z,1.60
2022-12-03T13:29:22.804Z,1.60
2022-12-03T13:31:54.209Z,1.70
2022-12-03T13:34:24.122Z,1.70
2022-12-03T13:36:57.553Z,1.60
2022-12-03T13:39:35.130Z,1.60
2022-12-03T13:42:32.606Z,1.60
2022-12-03T13:45:01.771Z,1.50
2022-12-03T13:47:28.924Z,1.50
2022-12-03T13:50:04.857Z,1.50
2022-12-03T13:52:34.416Z,1.50
2022-12-03T13:55:03.565Z,1.50
2022-12-03T13:57:30.551Z,1.50
2022-12-03T13:59:57.788Z,1.50
2022-12-03T14:02:24.823Z,1.50
2022-12-03T14:04:56.840Z,1.50
2022-12-03T14:07:26.871Z,1.60
2022-12-03T14:09:54.283Z,1.60
2022-12-03T14:12:27.090Z,1.60
2022-12-03T14:14:54.527Z,1.60
2022-12-03T14:17:21.547Z,1.60
2022-12-03T14:19:48.754Z,1.60
2022-12-03T14:22:15.788Z,1.60
2022-12-03T14:24:42.965Z,1.50
2022-12-03T14:27:09.888Z,1.50
2022-12-03T14:29:37.196Z,1.50
2022-12-03T14:32:04.287Z,1.50
2022-12-03T14:34:31.546Z,1.50
2022-12-03T14:36:58.746Z,1.50
2022-12-03T14:39:26.026Z,1.50
2022-12-03T14:42:11.731Z,1.50
2022-12-03T14:44:39.773Z,1.50
2022-12-03T14:47:06.781Z,1.50
2022-12-03T14:49:34.054Z,1.50
2022-12-03T14:52:01.043Z,1.50
2022-12-03T14:54:28.585Z,1.60
2022-12-03T14:56:55.545Z,1.60
2022-12-03T14:59:27.431Z,1.50
2022-12-03T15:01:55.341Z,1.50
2022-12-03T15:04:22.729Z,1.50
2022-12-03T15:06:49.842Z,1.50
2022-12-03T15:09:17.321Z,1.50
2022-12-03T15:11:46.325Z,1.50
2022-12-03T15:14:14.058Z,1.40
2022-12-03T15:16:41.056Z,1.50
2022-12-03T15:19:08.593Z,1.40
2022-12-03T15:21:35.538Z,1.40
2022-12-03T15:24:03.135Z,1.40
2022-12-03T15:26:30.455Z,1.40
2022-12-03T15:28:57.738Z,1.40
2022-12-03T15:31:24.804Z,1.40
2022-12-03T15:33:52.112Z,1.40
2022-12-03T15:36:19.113Z,1.40
2022-12-03T15:38:46.374Z,1.40
2022-12-03T15:41:24.565Z,1.40
2022-12-03T15:43:52.830Z,1.40
2022-12-03T15:46:20.742Z,1.40
2022-12-03T15:48:48.521Z,1.40
2022-12-03T15:51:15.536Z,1.40
2022-12-03T15:53:43.122Z,1.40
2022-12-03T15:56:11.988Z,1.40
2022-12-03T15:58:40.025Z,1.40
2022-12-03T16:01:08.342Z,1.40
2022-12-03T16:03:36.267Z,1.40
2022-12-03T16:06:03.563Z,1.50
2022-12-03T16:08:30.826Z,1.40
2022-12-03T16:10:57.797Z,1.50
2022-12-03T16:13:25.001Z,1.40
2022-12-03T16:15:52.069Z,1.50
2022-12-03T16:18:19.422Z,1.40
2022-12-03T16:20:46.338Z,1.50
2022-12-03T16:23:13.718Z,1.50
2022-12-03T16:25:40.679Z,1.50
2022-12-03T16:28:08.088Z,1.50
2022-12-03T16:30:36.745Z,1.50
2022-12-03T16:33:04.013Z,1.50
2022-12-03T16:35:30.994Z,1.50
2022-12-03T16:37:58.263Z,1.40
2022-12-03T16:40:26.641Z,1.50
2022-12-03T16:42:53.897Z,1.50
2022-12-03T16:45:29.824Z,1.50
2022-12-03T16:47:57.012Z,1.50
2022-12-03T16:50:29.400Z,1.40
2022-12-03T16:52:58.050Z,1.50
2022-12-03T16:55:25.623Z,1.50
2022-12-03T16:57:52.896Z,1.50
2022-12-03T17:00:21.962Z,1.50
2022-12-03T17:02:49.393Z,1.50
2022-12-03T17:05:16.522Z,1.40
2022-12-03T17:07:43.803Z,1.40
2022-12-03T17:10:11.493Z,1.40
2022-12-03T17:13:07.562Z,1.40
2022-12-03T17:15:25.761Z,1.40
2022-12-03T17:17:52.991Z,1.40
2022-12-03T17:20:20.118Z,1.40
2022-12-03T17:22:47.430Z,1.40
2022-12-03T17:25:14.567Z,1.40
2022-12-03T17:27:45.032Z,1.40
2022-12-03T17:30:13.542Z,1.40
2022-12-03T17:32:40.906Z,1.40
2022-12-03T17:35:08.832Z,1.40
2022-12-03T17:37:36.416Z,1.40
2022-12-03T17:40:08.269Z,1.40
2022-12-03T17:42:35.562Z,1.50
2022-12-03T17:45:02.631Z,1.50
2022-12-03T17:47:30.005Z,1.50
2022-12-03T17:49:57.516Z,1.40
2022-12-03T17:52:24.992Z,1.50
2022-12-03T17:57:39.253Z,1.50
2022-12-03T18:00:06.949Z,1.50
2022-12-03T18:02:34.202Z,1.50
2022-12-03T18:05:01.181Z,1.50
2022-12-03T18:07:28.472Z,1.50
2022-12-03T18:09:55.691Z,1.50
2022-12-03T18:12:23.206Z,1.50
2022-12-03T18:14:50.118Z,1.50
2022-12-03T18:17:17.373Z,1.50
2022-12-03T18:19:44.303Z,1.50
2022-12-03T18:22:11.568Z,1.50
2022-12-03T18:24:38.592Z,1.50
2022-12-03T18:27:06.093Z,1.50
2022-12-03T18:29:33.071Z,1.50
2022-12-03T18:32:00.647Z,1.50
2022-12-03T18:34:27.744Z,1.50
2022-12-03T18:36:54.975Z,1.60
2022-12-03T18:39:29.338Z,1.60
2022-12-03T18:41:56.596Z,1.60
2022-12-03T18:44:23.570Z,1.60
2022-12-03T18:46:53.814Z,1.50
2022-12-03T18:49:21.846Z,1.60
2022-12-03T18:51:52.112Z,1.50
2022-12-03T18:54:22.909Z,1.50
2022-12-03T18:56:50.203Z,1.60
2022-12-03T18:59:17.193Z,1.60
2022-12-03T19:01:45.004Z,1.60
2022-12-03T19:04:12.216Z,1.60
2022-12-03T19:06:39.597Z,1.60
2022-12-03T19:09:06.653Z,1.60
2022-12-03T19:11:34.155Z,1.60
2022-12-03T19:14:02.910Z,1.60
2022-12-03T19:16:30.369Z,1.60
2022-12-03T19:18:57.722Z,1.70
2022-12-03T19:21:27.338Z,1.60
2022-12-03T19:24:23.208Z,1.70
2022-12-03T19:26:45.012Z,1.70
2022-12-03T19:29:12.353Z,1.70
2022-12-03T19:31:39.621Z,1.60
2022-12-03T19:34:06.634Z,1.70
2022-12-03T19:36:33.913Z,1.70
2022-12-03T19:39:01.571Z,1.70
2022-12-03T19:41:32.232Z,1.70
2022-12-03T19:43:59.403Z,1.80
2022-12-03T19:46:31.305Z,1.80
2022-12-03T19:48:58.396Z,1.70
2022-12-03T19:51:34.491Z,1.70
2022-12-03T19:54:06.430Z,1.80
2022-12-03T19:56:34.295Z,1.70
2022-12-03T19:59:01.345Z,1.70
2022-12-03T20:01:31.603Z,1.70
2022-12-03T20:04:00.671Z,1.80
2022-12-03T20:06:30.962Z,1.90
2022-12-03T20:09:02.131Z,1.90
2022-12-03T20:11:32.854Z,1.90
2022-12-03T20:14:02.131Z,1.90
2022-12-03T20:16:30.061Z,1.90
2022-12-03T20:18:59.635Z,1.90
2022-12-03T20:21:29.195Z,2.00
2022-12-03T20:23:56.136Z,1.90
2022-12-03T20:26:23.970Z,2.00
2022-12-03T20:28:53.591Z,2.00
2022-12-03T20:31:25.508Z,2.00
2022-12-03T20:33:54.885Z,2.00
2022-12-03T20:36:23.329Z,2.00
2022-12-03T20:38:55.200Z,2.00
2022-12-03T20:41:23.722Z,2.00
2022-12-03T20:43:50.918Z,2.00
2022-12-03T20:46:21.385Z,2.00
2022-12-03T20:48:48.620Z,1.90
2022-12-03T20:51:19.172Z,1.90
2022-12-03T20:53:46.883Z,2.00
2022-12-03T20:56:26.104Z,2.00
2022-12-03T20:58:53.797Z,2.00
2022-12-03T21:01:23.981Z,2.00
2022-12-03T21:03:52.764Z,1.90
2022-12-03T21:06:20.996Z,1.90
2022-12-03T21:08:48.279Z,1.80
2022-12-03T21:11:21.329Z,1.80
2022-12-03T21:13:48.508Z,1.80
2022-12-03T21:16:39.462Z,1.90
2022-12-03T21:19:09.694Z,1.90
2022-12-03T21:21:37.126Z,1.90
2022-12-03T21:24:05.066Z,1.90
2022-12-03T21:26:32.771Z,1.90
2022-12-03T21:28:59.757Z,1.90
2022-12-03T21:31:27.622Z,1.80
2022-12-03T21:33:56.283Z,1.80
2022-12-03T21:36:25.314Z,1.80
2022-12-03T21:38:53.231Z,1.80
2022-12-03T21:41:20.461Z,1.80
2022-12-03T21:43:47.387Z,1.80
2022-12-03T21:47:10.001Z,1.90
2022-12-03T21:49:04.221Z,1.80
2022-12-03T21:51:31.468Z,1.80
2022-12-03T21:53:58.359Z,1.90
2022-12-03T21:56:25.666Z,1.80
2022-12-03T21:58:52.601Z,1.90
2022-12-03T22:01:23.032Z,1.80
2022-12-03T22:03:50.846Z,1.80
2022-12-03T22:06:19.804Z,1.80
2022-12-03T22:08:47.298Z,1.90
2022-12-03T22:11:17.784Z,1.90
2022-12-03T22:13:45.028Z,1.80
2022-12-03T22:16:16.308Z,1.80
2022-12-03T22:18:43.766Z,1.80
2022-12-03T22:21:13.976Z,1.80
2022-12-03T22:23:41.356Z,1.80
2022-12-03T22:26:15.661Z,1.80
2022-12-03T22:28:44.335Z,1.80
2022-12-03T22:31:12.362Z,1.80
2022-12-03T22:33:40.058Z,1.70
2022-12-03T22:36:17.959Z,1.80
2022-12-03T22:38:47.005Z,1.80
2022-12-03T22:41:15.013Z,1.70
2022-12-03T22:43:42.174Z,1.70
2022-12-03T22:46:13.230Z,1.80
2022-12-03T22:48:41.996Z,1.70
2022-12-03T22:51:24.665Z,1.60
2022-12-03T22:53:56.380Z,1.70
2022-12-03T22:56:24.457Z,1.70
2022-12-03T22:58:51.820Z,1.80
2022-12-03T23:01:33.810Z,1.80
2022-12-03T23:04:01.184Z,1.70
2022-12-03T23:06:29.641Z,1.70
2022-12-03T23:08:58.154Z,1.60
2022-12-03T23:11:26.210Z,1.70
2022-12-03T23:13:53.349Z,1.60
2022-12-03T23:16:24.386Z,1.70
2022-12-03T23:18:51.457Z,1.70
2022-12-03T23:21:28.552Z,1.70
2022-12-03T23:23:57.058Z,1.70
2022-12-03T23:26:24.327Z,1.70
2022-12-03T23:28:51.260Z,1.60
2022-12-03T23:31:30.259Z,1.60
2022-12-03T23:33:58.749Z,1.70
2022-12-03T23:36:28.648Z,1.60
2022-12-03T23:38:55.716Z,1.60
2022-12-03T23:41:24.054Z,1.60
2022-12-03T23:43:51.265Z,1.60
2022-12-03T23:46:25.595Z,1.70
2022-12-03T23:48:52.589Z,1.60
2022-12-03T23:51:24.089Z,1.70
2022-12-03T23:53:53.169Z,1.80
2022-12-03T23:56:25.735Z,1.80
2022-12-03T23:58:52.750Z,1.70
